Time;durP1;ratioP1;P1;durP2;ratioP2;P2;SDS_P1;SDS_P2;PMS_P1;PMS_P2;Temp;Humidity;BMP_temperature;BMP_pressure;BME280_temperature;BME280_humidity;BME280_pressure;Samples;Min_cycle;Max_cycle;Signal;HPM_P1;HPM_P2
2022/03/31 00:02:07;;;;;;;18.03;10.33;;;1.90;99.90;;;;;;8430654;28;20255;-62
2022/03/31 00:06:08;;;;;;;18.57;11.60;;;1.90;99.90;;;;;;8419056;28;20202;-61
2022/03/31 00:10:08;;;;;;;23.60;12.97;;;1.90;99.90;;;;;;8418807;28;20230;-62
2022/03/31 00:14:09;;;;;;;18.63;11.13;;;1.90;99.90;;;;;;8412594;28;20471;-61
2022/03/31 00:18:11;;;;;;;18.60;13.03;;;1.90;99.90;;;;;;8420251;28;20210;-64
2022/03/31 00:22:12;;;;;;;16.90;11.63;;;1.90;99.90;;;;;;8417285;28;20209;-61
2022/03/31 00:26:14;;;;;;;15.90;10.53;;;1.80;99.90;;;;;;8431013;28;20223;-61
2022/03/31 00:30:15;;;;;;;18.80;11.43;;;1.80;99.90;;;;;;8427683;28;20234;-61
2022/03/31 00:34:16;;;;;;;17.27;11.53;;;1.80;99.90;;;;;;8415210;28;20239;-61
2022/03/31 00:38:17;;;;;;;20.43;12.10;;;1.80;99.90;;;;;;8414867;28;20294;-61
2022/03/31 00:42:18;;;;;;;21.17;12.27;;;1.80;99.90;;;;;;8402198;28;20206;-61
2022/03/31 00:46:22;;;;;;;22.47;12.20;;;1.80;99.90;;;;;;8420023;28;20212;-61
2022/03/31 00:50:23;;;;;;;21.67;12.83;;;1.80;99.90;;;;;;8425194;28;20219;-61
2022/03/31 00:54:27;;;;;;;23.87;14.60;;;1.80;99.90;;;;;;8426050;28;20233;-62
2022/03/31 00:58:28;;;;;;;20.57;11.40;;;1.80;99.90;;;;;;8431394;28;20207;-60
2022/03/31 01:02:32;;;;;;;21.27;12.20;;;1.80;99.90;;;;;;8412287;28;20219;-63
2022/03/31 01:06:34;;;;;;;18.30;11.57;;;1.80;99.90;;;;;;8418229;28;20238;-60
2022/03/31 01:10:34;;;;;;;15.93;10.93;;;1.70;99.90;;;;;;8403558;28;20228;-62
2022/03/31 01:14:35;;;;;;;18.63;11.90;;;1.70;99.90;;;;;;8413047;28;20243;-63
2022/03/31 01:18:36;;;;;;;16.33;11.40;;;1.70;99.90;;;;;;8423746;28;20228;-62
2022/03/31 01:22:37;;;;;;;17.47;11.20;;;1.70;99.90;;;;;;8429327;28;20465;-61
2022/03/31 01:26:38;;;;;;;18.00;11.30;;;1.70;99.90;;;;;;8417103;28;20273;-61
2022/03/31 01:30:39;;;;;;;15.80;10.87;;;1.70;99.90;;;;;;8415922;28;20255;-63
2022/03/31 01:34:40;;;;;;;18.50;10.80;;;1.70;99.90;;;;;;8419210;28;20222;-61
2022/03/31 01:38:41;;;;;;;18.13;10.80;;;1.70;99.90;;;;;;8406293;28;20211;-62
2022/03/31 01:42:43;;;;;;;15.43;11.13;;;1.70;99.90;;;;;;8436906;28;20205;-62
2022/03/31 01:46:43;;;;;;;17.00;11.40;;;1.70;99.90;;;;;;8415324;28;20221;-62
2022/03/31 01:50:44;;;;;;;18.97;11.47;;;1.60;99.90;;;;;;8399239;28;20231;-62
2022/03/31 01:54:45;;;;;;;14.27;10.70;;;1.60;99.90;;;;;;8424093;28;20263;-64
2022/03/31 01:58:46;;;;;;;19.23;10.47;;;1.50;99.90;;;;;;8417988;28;20226;-63
2022/03/31 02:02:47;;;;;;;21.37;10.93;;;1.60;99.90;;;;;;8422892;28;20216;-61
2022/03/31 02:06:47;;;;;;;14.17;9.27;;;1.50;99.90;;;;;;8397597;28;20211;-61
2022/03/31 02:10:49;;;;;;;17.20;9.90;;;1.50;99.90;;;;;;8397873;28;20228;-61
2022/03/31 02:14:50;;;;;;;16.67;9.67;;;1.50;99.90;;;;;;8428971;28;20229;-62
2022/03/31 02:18:51;;;;;;;24.20;13.83;;;1.50;99.90;;;;;;8438878;28;20253;-63
2022/03/31 02:22:52;;;;;;;35.10;20.90;;;1.50;99.90;;;;;;8404562;28;20231;-62
2022/03/31 02:26:53;;;;;;;27.07;17.77;;;1.40;99.90;;;;;;8427325;28;20193;-61
2022/03/31 02:30:53;;;;;;;18.40;9.90;;;1.50;99.90;;;;;;8426496;28;20313;-61
2022/03/31 02:34:54;;;;;;;17.83;9.70;;;1.40;99.90;;;;;;8417036;28;20213;-63
2022/03/31 02:38:55;;;;;;;13.60;9.33;;;1.40;99.90;;;;;;8433163;28;20236;-61
2022/03/31 02:42:56;;;;;;;16.10;9.93;;;1.40;99.90;;;;;;8404906;28;20210;-61
2022/03/31 02:46:57;;;;;;;15.83;8.93;;;1.30;99.90;;;;;;8423898;28;20208;-62
2022/03/31 02:50:57;;;;;;;14.77;9.07;;;1.30;99.90;;;;;;8434189;28;20223;-63
2022/03/31 02:59:17;;;;;;;14.20;9.30;;;1.30;99.90;;;;;;8431740;28;20343;-61
2022/03/31 03:03:19;;;;;;;17.50;10.60;;;1.20;99.90;;;;;;8432987;28;20206;-62
2022/03/31 03:07:20;;;;;;;15.73;9.93;;;1.20;99.90;;;;;;8428087;28;20230;-61
2022/03/31 03:11:21;;;;;;;15.97;10.03;;;1.20;99.90;;;;;;8396667;28;20390;-63
2022/03/31 03:15:22;;;;;;;14.37;9.37;;;1.20;99.90;;;;;;8417205;28;20209;-61
2022/03/31 03:19:23;;;;;;;18.63;10.27;;;1.20;99.90;;;;;;8431498;28;20213;-61
2022/03/31 03:23:24;;;;;;;17.47;10.90;;;1.20;99.90;;;;;;8404473;28;20212;-62
2022/03/31 03:27:25;;;;;;;22.67;12.57;;;1.10;99.90;;;;;;8428981;28;20240;-62
2022/03/31 03:31:26;;;;;;;18.17;12.23;;;1.10;99.90;;;;;;8423001;28;20241;-61
2022/03/31 03:35:27;;;;;;;19.83;12.30;;;1.10;99.90;;;;;;8421635;28;20202;-60
2022/03/31 03:39:28;;;;;;;19.80;11.70;;;1.10;99.90;;;;;;8420529;28;20624;-61
2022/03/31 03:43:30;;;;;;;19.77;12.10;;;1.10;99.90;;;;;;8412567;28;20211;-61
2022/03/31 03:47:32;;;;;;;21.93;12.50;;;1.10;99.90;;;;;;8447123;28;20232;-63
2022/03/31 03:51:32;;;;;;;32.10;15.10;;;1.10;99.90;;;;;;8424005;28;20290;-63
2022/03/31 03:55:35;;;;;;;18.47;11.67;;;1.10;99.90;;;;;;8418128;28;20224;-61
2022/03/31 03:59:36;;;;;;;19.23;11.80;;;1.10;99.90;;;;;;8418454;28;20225;-62
2022/03/31 04:03:37;;;;;;;19.07;11.57;;;1.10;99.90;;;;;;8421201;28;20205;-62
2022/03/31 04:07:38;;;;;;;20.57;11.97;;;1.10;99.90;;;;;;8434863;28;20214;-61
2022/03/31 04:11:38;;;;;;;16.70;10.90;;;1.10;99.90;;;;;;8434550;28;20461;-60
2022/03/31 04:15:39;;;;;;;17.03;10.47;;;1.00;99.90;;;;;;8422268;28;20301;-60
2022/03/31 04:19:42;;;;;;;17.67;10.30;;;1.00;99.90;;;;;;8414436;28;20197;-60
2022/03/31 04:23:43;;;;;;;17.50;10.70;;;1.00;99.90;;;;;;8426118;28;20208;-62
2022/03/31 04:27:44;;;;;;;16.43;10.43;;;1.00;99.90;;;;;;8440009;28;20206;-61
2022/03/31 04:31:45;;;;;;;15.50;9.90;;;1.00;99.90;;;;;;8420645;28;20221;-60
2022/03/31 04:35:46;;;;;;;15.93;10.60;;;1.00;99.90;;;;;;8416208;28;20214;-63
2022/03/31 04:39:46;;;;;;;19.27;11.63;;;1.00;99.90;;;;;;8423226;28;20327;-60
2022/03/31 04:43:47;;;;;;;15.27;9.53;;;0.90;99.90;;;;;;8404018;28;20217;-59
2022/03/31 04:47:48;;;;;;;15.80;10.07;;;0.90;1.60;;;;;;8444389;28;20249;-61
2022/03/31 04:51:49;;;;;;;17.10;10.27;;;0.90;1.00;;;;;;8434956;28;20260;-59
2022/03/31 04:55:49;;;;;;;16.03;10.00;;;0.90;97.50;;;;;;8422621;28;20241;-61
2022/03/31 04:59:50;;;;;;;16.57;10.73;;;0.90;99.90;;;;;;8414661;28;20217;-60
2022/03/31 05:03:55;;;;;;;16.83;9.70;;;0.90;98.50;;;;;;8428249;28;20632;-62
2022/03/31 05:07:56;;;;;;;13.93;9.03;;;0.90;1.00;;;;;;8398743;28;20246;-60
2022/03/31 05:11:57;;;;;;;15.27;10.67;;;0.80;9.10;;;;;;8399010;28;20233;-60
2022/03/31 05:15:58;;;;;;;12.87;9.17;;;0.80;56.90;;;;;;8440645;28;20238;-60
2022/03/31 05:19:59;;;;;;;14.90;9.90;;;0.80;99.90;;;;;;8430017;28;20204;-60
2022/03/31 05:24:00;;;;;;;15.53;9.70;;;0.80;99.90;;;;;;8425794;28;20219;-61
2022/03/31 05:28:00;;;;;;;16.07;9.60;;;0.80;99.90;;;;;;8431522;28;20259;-62
2022/03/31 05:32:02;;;;;;;14.77;9.13;;;0.80;99.90;;;;;;8437923;28;20332;-60
2022/03/31 05:36:04;;;;;;;14.53;9.33;;;0.80;99.90;;;;;;8421447;28;20294;-61
2022/03/31 05:40:07;;;;;;;14.40;10.03;;;0.80;66.60;;;;;;8402134;28;20215;-59
2022/03/31 05:44:08;;;;;;;13.80;8.77;;;0.80;13.10;;;;;;8430294;28;20238;-60
2022/03/31 05:48:08;;;;;;;15.67;9.40;;;0.80;1.00;;;;;;8402872;28;20264;-61
2022/03/31 05:52:09;;;;;;;16.87;8.97;;;0.80;1.00;;;;;;8425612;28;20294;-60
2022/03/31 05:56:11;;;;;;;13.83;9.17;;;0.80;99.90;;;;;;8412268;28;20199;-61
2022/03/31 06:00:17;;;;;;;13.67;9.40;;;0.80;99.90;;;;;;8416569;28;20260;-60
2022/03/31 06:04:21;;;;;;;13.67;8.63;;;0.80;99.90;;;;;;8424157;28;20209;-62
2022/03/31 06:08:22;;;;;;;13.70;8.80;;;0.70;99.90;;;;;;8438847;28;20262;-60
2022/03/31 06:12:22;;;;;;;15.23;9.67;;;0.80;99.90;;;;;;8399651;28;20238;-62
2022/03/31 06:16:23;;;;;;;11.00;7.17;;;0.80;99.90;;;;;;8441566;28;20203;-62
2022/03/31 06:20:24;;;;;;;14.50;8.70;;;0.80;99.90;;;;;;8408625;28;20209;-60
2022/03/31 06:24:25;;;;;;;14.93;9.60;;;0.70;99.90;;;;;;8403643;28;20670;-60
2022/03/31 06:28:28;;;;;;;17.40;9.87;;;0.70;99.90;;;;;;8434337;28;20213;-61
2022/03/31 06:32:29;;;;;;;17.03;10.10;;;0.70;99.90;;;;;;8417870;28;20240;-60
2022/03/31 06:36:30;;;;;;;29.93;20.50;;;0.80;99.90;;;;;;8408459;28;20298;-60
2022/03/31 06:40:36;;;;;;;21.13;13.97;;;0.80;99.90;;;;;;8420016;28;20218;-61
2022/03/31 06:44:37;;;;;;;18.07;10.03;;;0.80;29.90;;;;;;8409420;28;20204;-59
2022/03/31 06:48:41;;;;;;;25.33;12.90;;;0.80;84.70;;;;;;8403015;28;20270;-59
2022/03/31 06:52:42;;;;;;;19.80;11.27;;;0.90;1.00;;;;;;8407587;28;20233;-59
2022/03/31 06:56:43;;;;;;;19.27;11.67;;;0.90;1.00;;;;;;8416235;28;20345;-61
2022/03/31 07:00:44;;;;;;;19.10;11.50;;;0.90;92.80;;;;;;8430302;28;20216;-62
2022/03/31 07:04:47;;;;;;;25.40;14.47;;;1.00;1.00;;;;;;8406642;28;20247;-60
2022/03/31 07:08:48;;;;;;;24.23;13.77;;;1.00;1.00;;;;;;8402134;28;20225;-60
2022/03/31 07:12:49;;;;;;;27.87;14.13;;;1.10;1.00;;;;;;8401887;28;20221;-60
2022/03/31 07:16:51;;;;;;;19.27;11.20;;;1.10;1.00;;;;;;8427790;28;20212;-60
2022/03/31 07:20:52;;;;;;;19.60;11.47;;;1.10;99.90;;;;;;8418392;28;20213;-58
2022/03/31 07:24:53;;;;;;;21.77;11.97;;;1.20;1.00;;;;;;8450788;28;20212;-60
2022/03/31 07:28:54;;;;;;;31.23;18.10;;;1.20;99.90;;;;;;8418291;28;20213;-60
2022/03/31 07:32:57;;;;;;;39.23;24.73;;;1.20;99.90;;;;;;8422827;28;20226;-61
2022/03/31 07:36:59;;;;;;;27.90;21.13;;;1.30;1.00;;;;;;8436456;28;20213;-61
2022/03/31 07:41:00;;;;;;;18.60;12.27;;;1.50;99.90;;;;;;8422289;28;20304;-61
2022/03/31 07:45:02;;;;;;;21.23;12.63;;;1.50;99.90;;;;;;8406653;28;20220;-59
2022/03/31 07:49:03;;;;;;;20.17;11.87;;;1.60;99.90;;;;;;8431803;28;20290;-60
2022/03/31 07:53:04;;;;;;;38.80;30.00;;;1.60;99.90;;;;;;8408663;28;20218;-61
2022/03/31 07:57:04;;;;;;;28.80;20.67;;;1.60;99.90;;;;;;8412921;28;20237;-63
2022/03/31 08:01:05;;;;;;;27.73;20.87;;;1.60;99.90;;;;;;8422024;28;20319;-62
2022/03/31 08:05:07;;;;;;;19.93;11.47;;;1.60;99.90;;;;;;8401053;28;20222;-60
2022/03/31 08:09:08;;;;;;;18.53;12.47;;;1.70;1.00;;;;;;8419206;28;20207;-71
2022/03/31 08:13:09;;;;;;;35.63;18.13;;;1.80;99.90;;;;;;8429007;28;20218;-63
2022/03/31 08:17:10;;;;;;;81.40;31.53;;;1.80;72.00;;;;;;8434529;28;20257;-60
2022/03/31 08:21:10;;;;;;;70.63;37.63;;;1.80;1.00;;;;;;8438663;28;20233;-62
2022/03/31 08:25:13;;;;;;;87.70;41.50;;;1.90;19.90;;;;;;8421896;28;20300;-61
2022/03/31 08:29:13;;;;;;;16.60;9.97;;;1.90;24.60;;;;;;8407854;28;20208;-61
2022/03/31 08:33:15;;;;;;;22.87;12.97;;;1.90;1.00;;;;;;8399556;28;20286;-59
2022/03/31 08:37:15;;;;;;;53.53;23.47;;;2.00;99.90;;;;;;8414981;28;20210;-64
2022/03/31 08:41:18;;;;;;;19.27;11.73;;;2.10;1.00;;;;;;8428348;28;20668;-58
2022/03/31 08:45:20;;;;;;;26.97;14.43;;;2.10;1.00;;;;;;8417366;28;20400;-60
2022/03/31 08:49:21;;;;;;;20.40;13.33;;;2.20;99.90;;;;;;8404475;28;20258;-59
2022/03/31 08:53:22;;;;;;;16.87;11.23;;;2.30;99.90;;;;;;8406565;28;20258;-61
2022/03/31 08:57:25;;;;;;;18.63;12.40;;;2.30;1.00;;;;;;8439941;28;20286;-60
2022/03/31 09:01:28;;;;;;;25.70;13.90;;;2.50;99.90;;;;;;8421365;28;20224;-61
2022/03/31 09:05:41;;;;;;;30.83;17.30;;;2.70;99.90;;;;;;8407921;28;20205;-60
2022/03/31 09:09:51;;;;;;;15.60;9.97;;;2.70;69.90;;;;;;8398578;28;20220;-61
2022/03/31 09:13:55;;;;;;;16.53;9.60;;;2.70;21.50;;;;;;8406253;28;20243;-73
2022/03/31 09:17:59;;;;;;;25.23;13.43;;;2.70;1.00;;;;;;8435773;28;20212;-60
2022/03/31 09:22:01;;;;;;;18.60;10.70;;;2.60;99.90;;;;;;8404508;28;20204;-61
2022/03/31 09:26:06;;;;;;;16.23;10.17;;;2.50;72.40;;;;;;8429340;28;20210;-59
2022/03/31 09:30:07;;;;;;;17.60;11.17;;;2.50;99.90;;;;;;8441600;28;20210;-61
2022/03/31 09:34:08;;;;;;;16.00;10.07;;;2.40;99.90;;;;;;8439021;28;20212;-60
2022/03/31 09:38:13;;;;;;;20.67;10.07;;;2.40;99.90;;;;;;8427776;28;20197;-60
2022/03/31 09:42:17;;;;;;;22.83;11.63;;;2.30;99.90;;;;;;8415384;28;20219;-61
2022/03/31 09:46:18;;;;;;;25.20;12.33;;;2.30;99.90;;;;;;8425948;28;20213;-62
2022/03/31 09:50:20;;;;;;;15.90;10.40;;;2.30;99.90;;;;;;8440851;28;20215;-59
2022/03/31 09:54:23;;;;;;;24.10;12.23;;;2.30;99.90;;;;;;8400770;28;20227;-60
2022/03/31 09:58:25;;;;;;;26.97;11.50;;;2.30;99.90;;;;;;8421358;28;20223;-62
2022/03/31 10:02:27;;;;;;;25.60;13.43;;;2.30;99.90;;;;;;8410866;28;20236;-61
2022/03/31 10:06:28;;;;;;;27.67;13.20;;;2.30;99.90;;;;;;8397978;28;20208;-60
2022/03/31 10:10:32;;;;;;;25.17;13.07;;;2.30;99.90;;;;;;8418473;28;20220;-61
2022/03/31 10:14:36;;;;;;;20.03;11.53;;;2.40;99.90;;;;;;8398577;28;20212;-65
2022/03/31 10:18:40;;;;;;;20.37;10.77;;;2.50;62.80;;;;;;8438675;28;20200;-60
2022/03/31 10:27:32;;;;;;;20.43;11.57;;;2.60;99.90;;;;;;8436076;28;20276;-60
2022/03/31 10:31:37;;;;;;;24.00;13.07;;;2.80;99.90;;;;;;8397569;28;20225;-64
2022/03/31 10:35:41;;;;;;;28.90;14.97;;;2.80;99.90;;;;;;8417250;28;20246;-61
2022/03/31 10:39:52;;;;;;;26.57;13.83;;;2.90;99.90;;;;;;8449609;28;20194;-60
2022/03/31 10:43:56;;;;;;;19.77;11.33;;;3.00;9.80;;;;;;8404864;28;20215;-62
2022/03/31 10:47:57;;;;;;;18.20;12.00;;;3.00;73.00;;;;;;8435515;28;20204;-59
2022/03/31 10:51:59;;;;;;;30.90;14.70;;;3.10;99.90;;;;;;8436657;28;20210;-60
2022/03/31 10:56:03;;;;;;;20.10;11.87;;;3.10;50.30;;;;;;8434384;28;20530;-62
2022/03/31 11:00:07;;;;;;;25.20;14.70;;;3.10;99.90;;;;;;8424351;28;20215;-60
2022/03/31 11:04:10;;;;;;;25.97;18.53;;;3.10;99.90;;;;;;8415047;28;20208;-61
2022/03/31 11:08:16;;;;;;;28.80;15.50;;;3.30;99.90;;;;;;8405569;28;20211;-60
2022/03/31 11:12:22;;;;;;;26.57;14.33;;;3.40;99.90;;;;;;8417109;28;20227;-62
2022/03/31 11:16:33;;;;;;;21.23;13.67;;;3.60;90.70;;;;;;8433127;28;20214;-60
2022/03/31 11:20:34;;;;;;;18.93;12.60;;;3.60;80.90;;;;;;8429504;28;20208;-60
2022/03/31 11:24:35;;;;;;;21.63;13.23;;;3.60;79.00;;;;;;8424734;28;20674;-60
2022/03/31 11:28:36;;;;;;;27.50;16.07;;;3.70;99.90;;;;;;8435309;28;20214;-62
2022/03/31 11:32:38;;;;;;;18.60;12.10;;;3.70;97.20;;;;;;8440178;28;20224;-61
2022/03/31 11:36:39;;;;;;;21.13;13.30;;;3.70;99.90;;;;;;8435300;28;20199;-60
2022/03/31 11:40:43;;;;;;;19.13;12.77;;;3.70;99.90;;;;;;8407566;28;20203;-60
2022/03/31 11:44:44;;;;;;;20.90;12.67;;;3.70;95.10;;;;;;8401641;28;20276;-61
2022/03/31 11:48:45;;;;;;;22.27;14.03;;;3.80;99.90;;;;;;8408732;28;20203;-62
2022/03/31 11:52:48;;;;;;;21.93;12.57;;;3.90;48.30;;;;;;8442852;28;20219;-62
2022/03/31 11:57:02;;;;;;;25.07;15.37;;;3.90;79.50;;;;;;8427429;28;20207;-62
2022/03/31 12:01:03;;;;;;;17.83;12.27;;;4.10;21.50;;;;;;8443635;28;20287;-62
2022/03/31 12:05:04;;;;;;;18.17;12.67;;;4.10;10.30;;;;;;8435889;28;20255;-59
2022/03/31 12:09:06;;;;;;;25.70;14.90;;;4.20;1.00;;;;;;8418231;28;20219;-62
2022/03/31 12:13:06;;;;;;;22.87;15.03;;;4.30;1.00;;;;;;8410903;28;20217;-61
2022/03/31 12:17:17;;;;;;;27.90;15.20;;;4.30;1.00;;;;;;8432888;28;20236;-60
2022/03/31 12:21:18;;;;;;;19.30;14.03;;;4.30;1.00;;;;;;8400162;28;20209;-62
2022/03/31 12:25:31;;;;;;;23.47;15.10;;;4.40;1.00;;;;;;8442470;28;20204;-60
2022/03/31 12:29:33;;;;;;;24.90;14.70;;;4.40;1.00;;;;;;8425132;28;20197;-62
2022/03/31 12:33:35;;;;;;;19.03;13.03;;;4.40;20.70;;;;;;8451451;28;20211;-61
2022/03/31 12:37:38;;;;;;;22.87;15.13;;;4.50;1.00;;;;;;8411259;28;20200;-60
2022/03/31 12:41:39;;;;;;;29.47;17.03;;;4.50;1.00;;;;;;8419886;28;20293;-62
2022/03/31 12:45:40;;;;;;;23.00;15.77;;;4.60;1.00;;;;;;8407854;28;20199;-61
2022/03/31 12:49:41;;;;;;;26.00;16.00;;;4.60;1.00;;;;;;8423799;28;20207;-61
2022/03/31 12:53:42;;;;;;;25.17;15.37;;;4.60;1.00;;;;;;8429978;28;20308;-62
2022/03/31 12:57:53;;;;;;;23.40;13.50;;;4.70;4.80;;;;;;8423864;28;20208;-61
2022/03/31 13:01:58;;;;;;;21.70;15.13;;;4.70;1.00;;;;;;8416691;28;20276;-73
2022/03/31 13:06:01;;;;;;;20.33;13.17;;;4.80;1.00;;;;;;8399432;28;20209;-60
2022/03/31 13:10:06;;;;;;;19.70;12.57;;;4.80;1.00;;;;;;8398221;28;20303;-61
2022/03/31 13:14:10;;;;;;;16.57;13.03;;;4.90;1.00;;;;;;8400588;28;20266;-60
2022/03/31 13:18:11;;;;;;;24.83;13.77;;;4.80;1.00;;;;;;8415685;28;20490;-61
2022/03/31 13:22:24;;;;;;;16.60;11.87;;;4.90;1.00;;;;;;8421967;28;20240;-62
2022/03/31 13:26:25;;;;;;;21.97;12.77;;;4.80;1.00;;;;;;8428854;28;20515;-60
2022/03/31 13:30:25;;;;;;;27.10;15.90;;;5.00;99.90;;;;;;8448729;28;20212;-69
2022/03/31 13:34:29;;;;;;;28.80;15.10;;;5.10;1.00;;;;;;8429974;28;20221;-61
2022/03/31 13:38:31;;;;;;;20.70;12.67;;;5.10;1.00;;;;;;8411289;28;20210;-60
2022/03/31 13:42:34;;;;;;;25.37;13.60;;;5.20;99.90;;;;;;8399336;28;20202;-59
2022/03/31 13:46:35;;;;;;;15.40;10.10;;;5.20;99.90;;;;;;8424171;28;20210;-62
2022/03/31 13:50:39;;;;;;;21.57;11.87;;;5.10;99.90;;;;;;8413587;28;20219;-62
2022/03/31 13:54:40;;;;;;;20.10;9.63;;;5.10;99.90;;;;;;8407134;28;20217;-62
2022/03/31 14:03:01;;;;;;;14.77;10.70;;;5.10;99.90;;;;;;8425437;28;20240;-59
2022/03/31 14:07:09;;;;;;;26.80;13.70;;;5.10;99.90;;;;;;8397143;28;20197;-64
2022/03/31 14:11:10;;;;;;;18.40;11.60;;;5.10;99.90;;;;;;8424756;28;20211;-59
2022/03/31 14:15:12;;;;;;;19.17;11.67;;;5.10;99.90;;;;;;8422591;28;20290;-59
2022/03/31 14:19:13;;;;;;;25.43;14.30;;;5.20;99.90;;;;;;8442774;28;20212;-60
2022/03/31 14:23:14;;;;;;;17.33;10.00;;;5.20;99.90;;;;;;8414828;28;20212;-62
2022/03/31 14:27:16;;;;;;;20.43;12.90;;;5.30;99.90;;;;;;8436645;28;20230;-60
2022/03/31 14:31:25;;;;;;;23.97;13.30;;;5.20;99.90;;;;;;8422654;28;20231;-60
2022/03/31 14:35:26;;;;;;;24.57;15.63;;;5.30;99.90;;;;;;8408615;28;20217;-59
2022/03/31 14:39:27;;;;;;;26.60;15.70;;;5.30;99.90;;;;;;8405022;28;21421;-60
2022/03/31 14:43:27;;;;;;;38.23;18.77;;;5.30;99.90;;;;;;8400914;28;20214;-60
2022/03/31 14:47:31;;;;;;;52.03;24.07;;;5.30;99.90;;;;;;8415864;28;20203;-60
2022/03/31 14:51:32;;;;;;;22.27;13.57;;;5.30;99.90;;;;;;8433388;28;20207;-61
2022/03/31 14:55:33;;;;;;;27.63;13.90;;;5.30;99.90;;;;;;8410315;28;20595;-61
2022/03/31 14:59:34;;;;;;;21.90;11.80;;;5.30;99.90;;;;;;8437996;28;20353;-60
2022/03/31 15:03:35;;;;;;;22.30;12.70;;;5.30;99.90;;;;;;8400554;28;20299;-60
2022/03/31 15:07:37;;;;;;;23.67;12.60;;;5.40;99.90;;;;;;8400667;28;20242;-59
2022/03/31 15:15:57;;;;;;;20.63;12.53;;;5.30;99.90;;;;;;8425084;28;20692;-59
2022/03/31 15:19:58;;;;;;;17.37;10.50;;;5.20;99.90;;;;;;8423471;28;20216;-61
2022/03/31 15:23:59;;;;;;;45.60;24.57;;;5.20;99.90;;;;;;8431672;28;20436;-60
2022/03/31 15:28:00;;;;;;;23.13;14.43;;;5.20;99.90;;;;;;8436340;28;20250;-63
2022/03/31 15:32:01;;;;;;;15.27;10.43;;;5.20;1.00;;;;;;8434164;28;20311;-60
2022/03/31 15:36:02;;;;;;;15.13;10.73;;;5.10;1.00;;;;;;8406194;28;20224;-59
2022/03/31 15:40:03;;;;;;;20.80;13.23;;;5.00;1.00;;;;;;8409086;28;20293;-59
2022/03/31 15:44:05;;;;;;;21.07;12.50;;;5.00;1.00;;;;;;8416269;28;20604;-61
2022/03/31 15:48:06;;;;;;;25.30;13.53;;;4.90;7.30;;;;;;8409451;28;20232;-59
2022/03/31 15:52:08;;;;;;;26.37;16.97;;;4.90;97.90;;;;;;8423842;28;20350;-60
2022/03/31 15:56:09;;;;;;;29.03;16.37;;;4.90;99.90;;;;;;8419778;28;20283;-60
2022/03/31 16:00:10;;;;;;;25.67;17.03;;;4.80;99.90;;;;;;8428052;28;20214;-60
2022/03/31 16:04:11;;;;;;;19.77;13.83;;;4.80;99.90;;;;;;8401275;28;20230;-61
2022/03/31 16:08:12;;;;;;;17.83;11.63;;;4.70;99.90;;;;;;8421338;28;20201;-62
2022/03/31 16:12:13;;;;;;;21.57;12.70;;;4.70;1.00;;;;;;8401578;28;20236;-62
2022/03/31 16:16:14;;;;;;;21.90;12.43;;;4.60;1.00;;;;;;8418560;28;20211;-72
2022/03/31 16:20:15;;;;;;;26.60;15.73;;;4.60;1.00;;;;;;8408107;28;20221;-60
2022/03/31 16:24:16;;;;;;;15.43;10.67;;;4.50;1.00;;;;;;8427847;28;20200;-59
2022/03/31 16:28:18;;;;;;;15.70;10.50;;;4.50;1.00;;;;;;8426114;28;20245;-62
2022/03/31 16:32:20;;;;;;;20.13;11.83;;;4.40;1.00;;;;;;8399648;28;20216;-60
2022/03/31 16:36:22;;;;;;;29.13;20.43;;;4.40;1.00;;;;;;8438610;28;20205;-62
2022/03/31 16:40:23;;;;;;;23.23;14.57;;;4.40;1.00;;;;;;8421009;28;20202;-60
2022/03/31 16:44:24;;;;;;;18.77;12.57;;;4.30;1.00;;;;;;8407274;28;20216;-60
2022/03/31 16:48:25;;;;;;;16.67;12.83;;;4.30;1.00;;;;;;8435514;28;20211;-61
2022/03/31 16:52:26;;;;;;;18.30;11.97;;;4.30;1.00;;;;;;8429943;28;20211;-59
2022/03/31 16:56:27;;;;;;;21.60;13.77;;;4.30;1.00;;;;;;8413181;28;20205;-60
2022/03/31 17:00:27;;;;;;;21.70;12.03;;;4.30;1.00;;;;;;8425858;28;20216;-59
2022/03/31 17:04:28;;;;;;;25.40;13.27;;;4.20;1.00;;;;;;8399852;28;20192;-60
2022/03/31 17:08:29;;;;;;;22.67;14.80;;;4.20;1.00;;;;;;8417363;28;20213;-60
2022/03/31 17:12:31;;;;;;;21.40;13.90;;;4.20;1.00;;;;;;8418441;28;20312;-61
2022/03/31 17:16:32;;;;;;;25.97;16.70;;;4.20;1.00;;;;;;8410984;28;20208;-61
2022/03/31 17:20:37;;;;;;;27.40;15.87;;;4.20;1.00;;;;;;8412649;28;20203;-60
2022/03/31 17:24:39;;;;;;;24.77;15.47;;;4.20;1.00;;;;;;8416793;28;20234;-61
2022/03/31 17:28:40;;;;;;;20.23;13.33;;;4.10;1.00;;;;;;8428218;28;20257;-60
2022/03/31 17:32:41;;;;;;;18.23;11.80;;;4.10;1.00;;;;;;8416412;28;20225;-60
2022/03/31 17:36:42;;;;;;;14.87;10.43;;;4.10;99.90;;;;;;8419391;28;20200;-60
2022/03/31 17:40:44;;;;;;;15.87;10.53;;;4.10;99.90;;;;;;8404338;28;20566;-60
2022/03/31 17:44:45;;;;;;;17.63;12.20;;;4.00;99.90;;;;;;8420570;28;20211;-63
2022/03/31 17:48:46;;;;;;;15.23;10.33;;;4.00;99.90;;;;;;8424082;28;20204;-60
2022/03/31 17:52:48;;;;;;;16.50;11.37;;;3.90;1.00;;;;;;8431080;28;20685;-62
2022/03/31 17:56:50;;;;;;;19.37;12.33;;;3.90;40.50;;;;;;8415889;28;20204;-59
2022/03/31 18:00:51;;;;;;;24.80;12.87;;;3.80;99.90;;;;;;8439092;28;20207;-59
2022/03/31 18:04:52;;;;;;;51.40;23.40;;;3.80;1.00;;;;;;8443837;28;20195;-62
2022/03/31 18:08:53;;;;;;;34.93;15.07;;;3.70;99.90;;;;;;8434680;28;20203;-59
2022/03/31 18:12:54;;;;;;;45.50;22.37;;;3.70;99.90;;;;;;8420826;28;20231;-61
2022/03/31 18:16:56;;;;;;;42.80;21.50;;;3.70;1.00;;;;;;8430247;28;20256;-61
2022/03/31 18:20:57;;;;;;;45.53;19.03;;;3.60;1.00;;;;;;8419181;28;20203;-60
2022/03/31 18:24:57;;;;;;;30.47;12.73;;;3.50;32.20;;;;;;8407598;28;20210;-62
2022/03/31 18:29:00;;;;;;;19.20;10.57;;;3.60;99.90;;;;;;8438622;28;20302;-61
2022/03/31 18:37:21;;;;;;;28.87;11.27;;;3.40;99.90;;;;;;8431659;28;20209;-60
2022/03/31 18:41:25;;;;;;;31.27;13.77;;;3.40;1.00;;;;;;8416121;28;20201;-60
2022/03/31 18:45:26;;;;;;;18.63;9.13;;;3.30;48.50;;;;;;8424907;28;20251;-59
2022/03/31 18:49:29;;;;;;;14.03;8.00;;;3.30;1.00;;;;;;8401600;28;20204;-59
2022/03/31 18:53:30;;;;;;;15.90;8.07;;;3.30;1.00;;;;;;8420655;28;20219;-59
2022/03/31 18:57:31;;;;;;;17.80;9.47;;;3.40;1.00;;;;;;8431538;28;20219;-60
2022/03/31 19:01:32;;;;;;;19.27;8.80;;;3.40;99.90;;;;;;8428315;28;20207;-60
2022/03/31 19:05:33;;;;;;;17.13;7.47;;;3.40;99.90;;;;;;8407432;28;20200;-61
2022/03/31 19:09:37;;;;;;;15.07;7.43;;;3.40;99.90;;;;;;8407569;28;20242;-61
2022/03/31 19:13:39;;;;;;;12.63;7.07;;;3.40;99.90;;;;;;8408719;28;20216;-60
2022/03/31 19:17:43;;;;;;;11.00;6.90;;;3.40;99.90;;;;;;8439863;28;20196;-61
2022/03/31 19:21:44;;;;;;;21.13;8.87;;;3.30;99.90;;;;;;8430466;28;20418;-59
2022/03/31 19:25:46;;;;;;;21.10;8.30;;;3.40;97.50;;;;;;8412952;28;20191;-61
2022/03/31 19:29:47;;;;;;;27.83;11.43;;;3.30;99.90;;;;;;8450477;28;20200;-60
2022/03/31 19:33:49;;;;;;;15.30;7.30;;;3.30;99.90;;;;;;8455706;28;20303;-61
2022/03/31 19:37:50;;;;;;;24.90;9.63;;;3.30;77.00;;;;;;8406810;28;20200;-60
2022/03/31 19:41:51;;;;;;;13.70;6.77;;;3.30;99.90;;;;;;8422786;28;20248;-60
2022/03/31 19:45:51;;;;;;;11.37;6.60;;;3.30;23.70;;;;;;8440838;28;20207;-59
2022/03/31 19:49:52;;;;;;;10.97;6.67;;;3.30;49.40;;;;;;8421356;28;20199;-60
2022/03/31 19:53:53;;;;;;;39.57;17.80;;;3.30;1.00;;;;;;8421767;28;20219;-59
2022/03/31 19:57:54;;;;;;;18.07;8.97;;;3.30;1.00;;;;;;8441508;28;20336;-60
2022/03/31 20:01:55;;;;;;;11.87;7.13;;;3.20;2.70;;;;;;8442234;28;20222;-60
2022/03/31 20:05:58;;;;;;;17.93;7.63;;;3.20;1.00;;;;;;8423612;28;20196;-59
2022/03/31 20:09:59;;;;;;;20.83;9.50;;;3.20;1.00;;;;;;8421939;28;20200;-62
2022/03/31 20:14:00;;;;;;;12.10;6.53;;;3.30;99.90;;;;;;8419994;28;20219;-60
2022/03/31 20:18:01;;;;;;;15.67;7.50;;;3.30;99.90;;;;;;8420274;28;20540;-61
2022/03/31 20:22:02;;;;;;;16.67;7.70;;;3.30;99.90;;;;;;8434782;28;20199;-60
2022/03/31 20:26:03;;;;;;;20.20;8.60;;;3.50;99.90;;;;;;8427224;28;20562;-60
2022/03/31 20:30:05;;;;;;;22.90;9.40;;;3.50;56.20;;;;;;8421183;28;20215;-60
2022/03/31 20:34:06;;;;;;;27.70;11.27;;;3.60;1.00;;;;;;8449072;28;20264;-60
2022/03/31 20:38:07;;;;;;;20.57;10.50;;;3.70;1.00;;;;;;8416721;28;20214;-60
2022/03/31 20:42:09;;;;;;;18.17;8.20;;;3.70;1.00;;;;;;8421366;28;20192;-60
2022/03/31 20:46:10;;;;;;;11.30;5.40;;;3.80;1.00;;;;;;8416478;28;20201;-59
2022/03/31 20:50:11;;;;;;;9.13;5.50;;;3.90;99.90;;;;;;8406167;28;20203;-60
2022/03/31 20:54:12;;;;;;;15.33;6.63;;;3.90;99.90;;;;;;8424312;28;20248;-59
2022/03/31 20:58:13;;;;;;;9.17;4.77;;;4.00;99.90;;;;;;8431177;28;20192;-60
2022/03/31 21:02:14;;;;;;;11.47;4.70;;;4.00;99.90;;;;;;8428928;28;20245;-61
2022/03/31 21:06:15;;;;;;;9.10;4.50;;;4.00;99.90;;;;;;8425335;28;20200;-61
2022/03/31 21:10:16;;;;;;;16.13;5.87;;;4.10;99.90;;;;;;8424376;28;20216;-61
2022/03/31 21:14:19;;;;;;;8.70;4.43;;;4.10;99.90;;;;;;8418313;28;20334;-61